Time;durP1;ratioP1;P1;durP2;ratioP2;P2;SDS_P1;SDS_P2;PMS_P1;PMS_P2;Temp;Humidity;BMP_temperature;BMP_pressure;BME280_temperature;BME280_humidity;BME280_pressure;Samples;Min_cycle;Max_cycle;Signal;HPM_P1;HPM_P2
2023/08/29 00:01:28;;;;;;;0.40;0.30;;;;;17.50;95534.00;;;;5037555;28;20240;-88
2023/08/29 00:04:17;;;;;;;0.80;0.70;;;;;17.40;95532.00;;;;5047502;28;20211;-88
2023/08/29 00:07:06;;;;;;;0.20;0.20;;;;;17.40;95538.00;;;;5032947;28;20662;-88
2023/08/29 00:09:56;;;;;;;0.77;0.47;;;;;17.50;95548.00;;;;5042691;28;20709;-89
2023/08/29 00:12:45;;;;;;;0.30;0.30;;;;;17.80;95544.00;;;;5031832;28;20200;-88
2023/08/29 00:15:35;;;;;;;1.20;0.47;;;;;18.00;95546.00;;;;5040230;28;20208;-88
2023/08/29 00:18:24;;;;;;;0.80;0.60;;;;;18.00;95547.00;;;;5040770;28;20236;-88
2023/08/29 00:21:13;;;;;;;0.50;0.50;;;;;18.00;95540.00;;;;5040429;28;20235;-88
2023/08/29 00:24:03;;;;;;;0.60;0.60;;;;;18.00;95546.00;;;;5035409;28;20220;-89
2023/08/29 00:26:53;;;;;;;4.93;0.60;;;;;18.20;95542.00;;;;5037073;28;20197;-88
2023/08/29 00:29:43;;;;;;;2.20;0.40;;;;;18.30;95543.00;;;;5036632;28;20200;-88
2023/08/29 00:32:33;;;;;;;0.50;0.37;;;;;18.30;95542.00;;;;5047718;28;20607;-88
2023/08/29 00:35:22;;;;;;;0.80;0.67;;;;;18.50;95537.00;;;;5049478;28;20201;-89
2023/08/29 00:38:12;;;;;;;1.80;0.60;;;;;18.40;95526.00;;;;5037888;28;20208;-88
2023/08/29 00:41:01;;;;;;;0.73;0.50;;;;;18.50;95524.00;;;;5051137;28;20603;-88
2023/08/29 00:43:51;;;;;;;2.13;0.40;;;;;18.40;95536.00;;;;5036300;28;20201;-87
2023/08/29 00:46:41;;;;;;;2.03;0.80;;;;;18.50;95539.00;;;;5037830;28;20197;-89
2023/08/29 00:49:30;;;;;;;4.10;0.50;;;;;18.30;95527.00;;;;5041543;28;20205;-88
2023/08/29 00:52:19;;;;;;;0.30;0.30;;;;;18.30;95531.00;;;;5038287;28;20224;-88
2023/08/29 00:55:09;;;;;;;3.03;0.40;;;;;18.40;95526.00;;;;5040220;28;20204;-88
2023/08/29 00:57:59;;;;;;;4.07;0.33;;;;;18.30;95540.00;;;;5035715;28;20248;-88
2023/08/29 01:00:50;;;;;;;0.33;0.27;;;;;18.20;95552.00;;;;5041228;28;20220;-88
2023/08/29 01:03:40;;;;;;;1.83;0.90;;;;;18.00;95543.00;;;;5037290;28;20197;-88
2023/08/29 01:06:30;;;;;;;0.87;0.60;;;;;17.80;95542.00;;;;5041063;28;20328;-88
2023/08/29 01:09:20;;;;;;;2.00;0.63;;;;;17.90;95551.00;;;;5047769;28;20197;-87
2023/08/29 01:12:15;;;;;;;0.40;0.40;;;;;18.30;95546.00;;;;5032494;28;20224;-87
2023/08/29 01:15:10;;;;;;;0.87;0.53;;;;;18.40;95536.00;;;;5053743;28;20207;-87
2023/08/29 01:18:03;;;;;;;0.43;0.40;;;;;18.30;95532.00;;;;5061037;28;20216;-87
2023/08/29 01:21:00;;;;;;;1.70;0.40;;;;;18.40;95525.00;;;;5043357;28;20262;-89
2023/08/29 01:23:54;;;;;;;0.83;0.43;;;;;18.30;95512.00;;;;5037682;28;20208;-87
2023/08/29 01:26:46;;;;;;;0.37;0.37;;;;;18.40;95520.00;;;;5034404;28;20584;-87
2023/08/29 01:29:35;;;;;;;0.70;0.60;;;;;18.50;95533.00;;;;5035228;28;20204;-87
2023/08/29 01:32:25;;;;;;;3.10;0.57;;;;;18.40;95530.00;;;;5038113;28;20221;-87
2023/08/29 01:35:15;;;;;;;3.30;0.50;;;;;18.50;95528.00;;;;5036294;28;20216;-87
2023/08/29 01:38:04;;;;;;;2.83;0.97;;;;;18.50;95525.00;;;;5038766;28;20308;-88
2023/08/29 01:40:54;;;;;;;1.07;0.97;;;;;18.50;95503.00;;;;5038462;28;20236;-87
2023/08/29 01:43:44;;;;;;;1.00;0.60;;;;;18.50;95504.00;;;;5039799;28;20205;-87
2023/08/29 01:46:33;;;;;;;0.77;0.63;;;;;18.70;95495.00;;;;5036459;28;20208;-86
2023/08/29 01:49:22;;;;;;;2.17;0.50;;;;;18.70;95492.00;;;;5045554;28;20647;-88
2023/08/29 01:52:12;;;;;;;0.87;0.70;;;;;18.40;95497.00;;;;5036992;28;20240;-87
2023/08/29 01:55:01;;;;;;;0.60;0.60;;;;;17.90;95496.00;;;;5038007;28;20201;-87
2023/08/29 01:57:51;;;;;;;0.77;0.53;;;;;18.20;95503.00;;;;5039737;28;20211;-89
2023/08/29 02:00:43;;;;;;;0.73;0.50;;;;;18.30;95504.00;;;;5037219;28;20714;-89
2023/08/29 02:03:32;;;;;;;1.70;0.67;;;;;18.50;95494.00;;;;5031560;28;20205;-88
2023/08/29 02:06:21;;;;;;;0.57;0.50;;;;;18.50;95481.00;;;;5038347;28;20213;-87
2023/08/29 02:09:11;;;;;;;2.03;0.80;;;;;18.70;95481.00;;;;5029940;28;20198;-88
2023/08/29 02:12:00;;;;;;;1.13;0.60;;;;;18.70;95485.00;;;;5040328;28;20239;-88
2023/08/29 02:14:49;;;;;;;0.50;0.50;;;;;18.00;95482.00;;;;5033915;28;20211;-88
2023/08/29 02:17:40;;;;;;;0.83;0.67;;;;;17.70;95479.00;;;;5036141;28;20198;-87
2023/08/29 02:20:29;;;;;;;2.87;0.60;;;;;18.00;95485.00;;;;5035063;28;20254;-89
2023/08/29 02:23:18;;;;;;;1.87;0.97;;;;;18.40;95487.00;;;;5036287;28;20201;-88
2023/08/29 02:26:07;;;;;;;2.50;1.20;;;;;18.50;95487.00;;;;5039427;28;20208;-88
2023/08/29 02:28:56;;;;;;;1.00;0.53;;;;;18.50;95493.00;;;;5037329;28;20212;-89
2023/08/29 02:31:46;;;;;;;0.73;0.50;;;;;18.50;95495.00;;;;5045810;28;20226;-88
2023/08/29 02:34:36;;;;;;;0.70;0.40;;;;;18.60;95484.00;;;;5035420;28;20204;-87
2023/08/29 02:37:26;;;;;;;0.70;0.70;;;;;18.60;95474.00;;;;5034987;28;20223;-87
2023/08/29 02:40:15;;;;;;;0.93;0.70;;;;;18.60;95467.00;;;;5033153;28;20225;-87
2023/08/29 02:43:04;;;;;;;1.93;0.77;;;;;18.60;95479.00;;;;5054368;28;20197;-87
2023/08/29 02:45:53;;;;;;;0.80;0.67;;;;;18.50;95476.00;;;;5041427;28;20635;-87
2023/08/29 02:48:42;;;;;;;5.00;3.37;;;;;18.50;95474.00;;;;5037252;28;20219;-87
2023/08/29 02:51:33;;;;;;;2.00;0.83;;;;;18.60;95466.00;;;;5031458;28;20228;-87
2023/08/29 02:54:22;;;;;;;2.30;1.03;;;;;18.60;95471.00;;;;5032466;28;20235;-87
2023/08/29 02:57:11;;;;;;;1.23;0.60;;;;;18.60;95479.00;;;;5033271;28;20207;-89
2023/08/29 03:00:00;;;;;;;2.17;0.73;;;;;18.50;95480.00;;;;5034814;28;20236;-88
2023/08/29 03:02:49;;;;;;;0.93;0.60;;;;;18.50;95466.00;;;;5036177;28;20208;-88
2023/08/29 03:05:40;;;;;;;3.80;0.80;;;;;18.60;95445.00;;;;5039264;28;20213;-89
2023/08/29 03:08:30;;;;;;;0.50;0.50;;;;;18.50;95453.00;;;;5035126;28;20197;-88
2023/08/29 03:11:19;;;;;;;1.90;0.63;;;;;18.50;95450.00;;;;5042681;28;20595;-89
2023/08/29 03:14:09;;;;;;;7.47;0.90;;;;;18.40;95449.00;;;;5054149;28;20212;-88
2023/08/29 03:16:58;;;;;;;2.73;1.13;;;;;18.40;95446.00;;;;5037861;28;20205;-88
2023/08/29 03:19:48;;;;;;;4.40;1.00;;;;;18.50;95444.00;;;;5042621;28;20231;-87
2023/08/29 03:22:37;;;;;;;1.07;0.97;;;;;18.50;95447.00;;;;5032472;28;20611;-88
2023/08/29 03:25:28;;;;;;;0.93;0.80;;;;;18.60;95437.00;;;;5033198;28;20220;-88
2023/08/29 03:28:17;;;;;;;2.13;0.67;;;;;18.70;95430.00;;;;5041107;28;20209;-88
2023/08/29 03:31:10;;;;;;;1.17;0.83;;;;;18.50;95423.00;;;;5040626;28;20217;-88
2023/08/29 03:33:59;;;;;;;5.13;0.70;;;;;18.50;95418.00;;;;5030674;28;20576;-88
2023/08/29 03:36:48;;;;;;;1.73;1.10;;;;;18.50;95424.00;;;;5038813;28;20679;-88
2023/08/29 03:39:37;;;;;;;1.53;0.70;;;;;18.20;95416.00;;;;5033003;28;20220;-88
2023/08/29 03:42:28;;;;;;;1.40;1.20;;;;;18.20;95416.00;;;;5037606;28;20221;-88
2023/08/29 03:45:18;;;;;;;2.43;1.93;;;;;18.40;95416.00;;;;5036639;28;20208;-88
2023/08/29 03:48:08;;;;;;;1.63;0.97;;;;;18.50;95416.00;;;;5046744;28;20205;-87
2023/08/29 03:51:06;;;;;;;3.70;0.90;;;;;18.10;95419.00;;;;5045443;28;20695;-88
2023/08/29 03:53:55;;;;;;;3.33;0.93;;;;;18.20;95416.00;;;;5036534;28;20202;-88
2023/08/29 03:56:44;;;;;;;2.27;1.17;;;;;18.40;95415.00;;;;5038525;28;20200;-87
2023/08/29 03:59:34;;;;;;;1.57;0.87;;;;;18.30;95426.00;;;;5042789;28;20205;-87
2023/08/29 04:02:24;;;;;;;1.10;0.90;;;;;18.10;95431.00;;;;5040199;28;20229;-87
2023/08/29 04:05:15;;;;;;;0.70;0.70;;;;;18.10;95430.00;;;;5044326;28;20223;-87
2023/08/29 04:08:05;;;;;;;1.40;0.73;;;;;18.10;95440.00;;;;5040407;28;20205;-87
2023/08/29 04:10:55;;;;;;;1.53;0.70;;;;;18.20;95450.00;;;;5041991;28;20412;-88
2023/08/29 04:13:44;;;;;;;1.23;0.80;;;;;18.10;95459.00;;;;5033872;28;20220;-88
2023/08/29 04:16:34;;;;;;;4.23;1.63;;;;;18.30;95472.00;;;;5045380;28;20574;-89
2023/08/29 04:19:23;;;;;;;2.53;0.87;;;;;18.30;95485.00;;;;5044126;28;20200;-87
2023/08/29 04:22:12;;;;;;;0.97;0.90;;;;;18.30;95482.00;;;;5045924;28;20266;-88
2023/08/29 04:25:04;;;;;;;1.13;0.90;;;;;18.30;95482.00;;;;5034714;28;20205;-87
2023/08/29 04:27:53;;;;;;;3.67;0.93;;;;;18.40;95485.00;;;;5036130;28;20739;-88
2023/08/29 04:30:42;;;;;;;3.73;1.60;;;;;18.50;95492.00;;;;5040387;28;20236;-89
2023/08/29 04:33:33;;;;;;;1.70;1.20;;;;;18.40;95490.00;;;;5033272;28;20666;-87
2023/08/29 04:36:22;;;;;;;3.10;1.00;;;;;18.50;95500.00;;;;5035850;28;20903;-86
2023/08/29 04:39:11;;;;;;;9.83;1.67;;;;;18.60;95494.00;;;;5033440;28;20211;-87
2023/08/29 04:42:01;;;;;;;6.00;1.60;;;;;18.40;95507.00;;;;5035378;28;20236;-86
2023/08/29 04:44:51;;;;;;;3.13;1.37;;;;;18.00;95511.00;;;;5033967;28;20204;-88
2023/08/29 04:47:40;;;;;;;3.53;1.23;;;;;18.30;95508.00;;;;5033538;28;20201;-87
2023/08/29 04:50:30;;;;;;;1.77;1.13;;;;;18.50;95517.00;;;;5041707;28;20696;-87
2023/08/29 04:53:21;;;;;;;2.17;1.47;;;;;18.50;95515.00;;;;5038171;28;20209;-85
2023/08/29 04:56:10;;;;;;;3.50;1.43;;;;;18.50;95511.00;;;;5039259;28;20270;-86
2023/08/29 04:58:59;;;;;;;3.37;1.47;;;;;18.50;95515.00;;;;5041674;28;20847;-86
2023/08/29 05:01:49;;;;;;;4.87;1.47;;;;;18.40;95509.00;;;;5046615;28;20232;-86
2023/08/29 05:04:39;;;;;;;2.77;1.30;;;;;18.00;95513.00;;;;5032909;28;20213;-86
2023/08/29 05:07:29;;;;;;;5.10;1.70;;;;;18.30;95493.00;;;;5034756;28;20213;-85
2023/08/29 05:10:18;;;;;;;7.60;1.60;;;;;18.40;95492.00;;;;5040215;28;20211;-86
2023/08/29 05:13:07;;;;;;;2.27;1.70;;;;;18.40;95498.00;;;;5039940;28;20208;-85
2023/08/29 05:15:56;;;;;;;2.00;1.70;;;;;18.40;95505.00;;;;5037997;28;20208;-86
2023/08/29 05:18:47;;;;;;;1.10;1.00;;;;;18.20;95505.00;;;;5029530;28;20454;-87
2023/08/29 05:21:36;;;;;;;1.03;0.93;;;;;18.10;95497.00;;;;5039933;28;20705;-86
2023/08/29 05:24:26;;;;;;;1.13;1.03;;;;;18.00;95511.00;;;;5037452;28;20209;-86
2023/08/29 05:27:15;;;;;;;3.60;1.00;;;;;17.90;95509.00;;;;5042895;28;20255;-86
2023/08/29 05:30:06;;;;;;;3.97;1.57;;;;;18.20;95522.00;;;;5038418;28;20582;-85
2023/08/29 05:32:55;;;;;;;2.00;1.30;;;;;18.40;95520.00;;;;5042190;28;20198;-84
2023/08/29 05:35:45;;;;;;;3.87;1.33;;;;;18.50;95508.00;;;;5028633;28;20205;-84
2023/08/29 05:38:34;;;;;;;2.87;1.20;;;;;18.70;95506.00;;;;5033505;28;20570;-84
2023/08/29 05:41:24;;;;;;;1.77;1.30;;;;;18.70;95504.00;;;;5044028;28;20221;-85
2023/08/29 05:44:14;;;;;;;2.23;0.97;;;;;18.90;95504.00;;;;5038296;28;20209;-84
2023/08/29 05:47:03;;;;;;;2.97;1.67;;;;;18.90;95499.00;;;;5040415;28;20227;-84
2023/08/29 05:49:52;;;;;;;1.50;1.40;;;;;18.90;95508.00;;;;5034050;28;20212;-85
2023/08/29 05:52:41;;;;;;;3.03;1.33;;;;;18.90;95500.00;;;;5032286;28;20231;-85
2023/08/29 05:55:30;;;;;;;2.00;1.37;;;;;19.10;95501.00;;;;5042897;28;20220;-85
2023/08/29 05:58:22;;;;;;;4.27;1.50;;;;;18.90;95501.00;;;;5042214;28;20196;-85
2023/08/29 06:01:11;;;;;;;1.37;0.97;;;;;18.90;95510.00;;;;5028603;28;20294;-85
2023/08/29 06:04:00;;;;;;;6.67;1.90;;;;;18.90;95512.00;;;;5046215;28;20216;-85
2023/08/29 06:06:50;;;;;;;2.83;1.63;;;;;18.80;95501.00;;;;5046165;28;20209;-85
2023/08/29 06:09:39;;;;;;;2.17;1.40;;;;;18.70;95510.00;;;;5033052;28;20218;-85
2023/08/29 06:12:28;;;;;;;1.37;1.27;;;;;18.80;95508.00;;;;5040702;28;20218;-86
2023/08/29 06:15:19;;;;;;;1.30;1.10;;;;;18.70;95518.00;;;;5042933;28;20215;-86
2023/08/29 06:18:08;;;;;;;2.95;1.65;;;;;18.70;95527.00;;;;5038683;28;20209;-84
2023/08/29 06:20:58;;;;;;;1.10;1.00;;;;;18.90;95528.00;;;;5033287;28;20243;-84
2023/08/29 06:23:47;;;;;;;2.37;1.10;;;;;19.00;95523.00;;;;5033914;28;20201;-85
2023/08/29 06:26:37;;;;;;;1.60;1.50;;;;;19.00;95515.00;;;;5035932;28;20577;-87
2023/08/29 06:29:26;;;;;;;1.67;1.57;;;;;18.80;95509.00;;;;5033519;28;20209;-86
2023/08/29 06:32:16;;;;;;;2.33;1.90;;;;;18.80;95516.00;;;;5040030;28;20239;-87
2023/08/29 06:35:07;;;;;;;2.50;1.40;;;;;18.80;95519.00;;;;5036541;28;20205;-88
2023/08/29 06:37:56;;;;;;;0.87;0.80;;;;;18.80;95531.00;;;;5038478;28;20244;-87
2023/08/29 06:40:46;;;;;;;1.90;1.80;;;;;19.00;95535.00;;;;5045543;28;20232;-87
2023/08/29 06:43:35;;;;;;;1.87;1.57;;;;;19.10;95544.00;;;;5036893;28;20198;-88
2023/08/29 06:46:24;;;;;;;3.30;1.50;;;;;19.00;95537.00;;;;5041909;28;20208;-87
2023/08/29 06:49:15;;;;;;;4.03;1.30;;;;;18.90;95538.00;;;;5034135;28;20707;-87
2023/08/29 06:52:05;;;;;;;5.03;1.70;;;;;19.10;95537.00;;;;5029356;28;20225;-87
2023/08/29 06:54:54;;;;;;;2.53;1.80;;;;;19.10;95539.00;;;;5030919;28;20558;-87
2023/08/29 06:57:43;;;;;;;2.07;1.47;;;;;19.20;95542.00;;;;5039797;28;20689;-87
2023/08/29 07:00:32;;;;;;;2.73;1.93;;;;;19.30;95540.00;;;;5036945;28;20659;-88
2023/08/29 07:03:22;;;;;;;2.53;1.90;;;;;19.30;95559.00;;;;5040794;28;20236;-87
2023/08/29 07:06:12;;;;;;;2.53;1.60;;;;;19.20;95570.00;;;;5040258;28;20197;-86
2023/08/29 07:09:01;;;;;;;6.03;2.27;;;;;19.00;95563.00;;;;5034264;28;20601;-86
2023/08/29 07:11:50;;;;;;;3.07;2.10;;;;;19.10;95556.00;;;;5038189;28;20668;-87
2023/08/29 07:14:40;;;;;;;2.80;1.40;;;;;19.10;95547.00;;;;5033320;28;20212;-87
2023/08/29 07:17:29;;;;;;;3.03;1.90;;;;;19.20;95554.00;;;;5037541;28;20368;-87
2023/08/29 07:20:19;;;;;;;2.73;2.17;;;;;19.30;95556.00;;;;5039453;28;20217;-86
2023/08/29 07:23:10;;;;;;;4.43;1.20;;;;;19.10;95548.00;;;;5037792;28;20252;-87
2023/08/29 07:26:00;;;;;;;3.30;1.80;;;;;18.70;95531.00;;;;5054036;22;20223;-70
2023/08/29 07:28:49;;;;;;;2.60;1.53;;;;;18.90;95524.00;;;;5051819;28;20193;-72
2023/08/29 07:31:38;;;;;;;2.17;1.70;;;;;19.30;95516.00;;;;5044202;28;20197;-71
2023/08/29 07:34:27;;;;;;;4.73;1.57;;;;;19.60;95540.00;;;;5041921;28;20205;-70
2023/08/29 07:37:16;;;;;;;2.90;1.80;;;;;19.60;95535.00;;;;5030071;28;20209;-72
2023/08/29 07:40:08;;;;;;;6.30;2.70;;;;;19.40;95540.00;;;;5029311;28;20859;-71
2023/08/29 07:42:57;;;;;;;6.20;2.10;;;;;19.40;95536.00;;;;5028645;28;20228;-71
2023/08/29 07:45:50;;;;;;;3.90;1.60;;;;;19.10;95530.00;;;;5031709;28;20281;-72
2023/08/29 07:48:40;;;;;;;2.07;1.73;;;;;19.40;95529.00;;;;5031036;28;20278;-70
2023/08/29 07:51:29;;;;;;;4.57;1.90;;;;;19.10;95526.00;;;;5028944;28;20206;-70
2023/08/29 07:54:18;;;;;;;9.33;2.80;;;;;19.00;95519.00;;;;5031259;28;20201;-68
2023/08/29 07:57:09;;;;;;;1.87;1.60;;;;;19.20;95511.00;;;;5030924;28;20221;-69
2023/08/29 07:59:58;;;;;;;2.40;1.73;;;;;19.50;95518.00;;;;5030923;28;20884;-68
2023/08/29 08:02:47;;;;;;;5.23;1.60;;;;;19.90;95526.00;;;;5028994;28;20273;-68
2023/08/29 08:05:37;;;;;;;2.37;1.87;;;;;20.00;95546.00;;;;5029217;28;20233;-68
2023/08/29 08:08:26;;;;;;;2.07;1.80;;;;;19.80;95547.00;;;;5029065;28;20213;-68
2023/08/29 08:11:15;;;;;;;4.70;1.70;;;;;19.50;95542.00;;;;5030225;28;20205;-69
2023/08/29 08:14:05;;;;;;;7.13;1.50;;;;;19.30;95542.00;;;;5028687;28;20208;-69
2023/08/29 08:16:54;;;;;;;4.17;1.57;;;;;19.40;95547.00;;;;5037792;28;20229;-69
2023/08/29 08:19:43;;;;;;;3.73;1.40;;;;;19.70;95543.00;;;;5025631;28;20205;-69
2023/08/29 08:22:32;;;;;;;2.73;1.40;;;;;19.80;95542.00;;;;5029753;28;20227;-69
2023/08/29 08:25:22;;;;;;;4.57;1.50;;;;;19.80;95555.00;;;;5029262;28;20221;-69
2023/08/29 08:28:13;;;;;;;2.60;1.57;;;;;19.90;95562.00;;;;5025870;28;20212;-69
2023/08/29 08:31:05;;;;;;;2.00;1.40;;;;;20.00;95574.00;;;;5031852;28;20205;-70
2023/08/29 08:33:56;;;;;;;5.13;1.90;;;;;20.10;95564.00;;;;5037734;28;20611;-70
2023/08/29 08:36:45;;;;;;;3.17;1.80;;;;;20.10;95548.00;;;;5033768;28;20213;-70
2023/08/29 08:39:34;;;;;;;2.47;1.70;;;;;20.20;95554.00;;;;5028406;28;20205;-69
2023/08/29 08:42:23;;;;;;;2.43;1.40;;;;;20.20;95558.00;;;;5027598;28;20232;-69
2023/08/29 08:45:12;;;;;;;2.23;1.47;;;;;20.30;95575.00;;;;5023879;28;20760;-69
2023/08/29 08:48:03;;;;;;;4.57;1.50;;;;;20.10;95578.00;;;;5027848;28;20204;-68
2023/08/29 08:50:53;;;;;;;5.90;1.87;;;;;20.10;95586.00;;;;5029159;28;20300;-69
2023/08/29 08:53:42;;;;;;;3.07;1.73;;;;;20.10;95584.00;;;;5027847;28;20198;-70
2023/08/29 08:56:31;;;;;;;3.43;1.20;;;;;20.10;95585.00;;;;5024870;28;20225;-69
2023/08/29 08:59:21;;;;;;;1.43;1.20;;;;;20.20;95582.00;;;;5026788;28;20209;-69
2023/08/29 09:02:13;;;;;;;1.90;1.17;;;;;20.20;95586.00;;;;5026819;28;20209;-69
2023/08/29 09:05:04;;;;;;;2.47;1.20;;;;;20.10;95585.00;;;;5026407;28;20205;-69
2023/08/29 09:07:53;;;;;;;3.17;1.07;;;;;19.30;95564.00;;;;5027965;28;20212;-69
2023/08/29 09:10:42;;;;;;;2.50;1.43;;;;;19.50;95567.00;;;;5027579;28;20205;-69
2023/08/29 09:13:32;;;;;;;1.30;1.17;;;;;19.80;95573.00;;;;5025736;28;20208;-69
2023/08/29 09:16:21;;;;;;;2.27;1.30;;;;;20.10;95576.00;;;;5025210;28;20917;-69
2023/08/29 09:19:11;;;;;;;2.93;1.10;;;;;20.10;95576.00;;;;5023981;28;20220;-69
2023/08/29 09:22:01;;;;;;;3.10;1.27;;;;;20.20;95568.00;;;;5026287;28;20208;-69
2023/08/29 09:24:51;;;;;;;0.93;0.93;;;;;20.20;95580.00;;;;5028188;28;20628;-69
2023/08/29 09:27:41;;;;;;;1.40;0.97;;;;;20.30;95578.00;;;;4990680;28;1114227;-69
2023/08/29 09:30:30;;;;;;;1.77;1.00;;;;;20.50;95574.00;;;;5028261;28;20208;-68
2023/08/29 09:33:23;;;;;;;3.93;0.87;;;;;20.50;95577.00;;;;5030151;28;20209;-69
2023/08/29 09:36:12;;;;;;;6.70;1.70;;;;;20.60;95579.00;;;;5025158;28;20229;-68
2023/08/29 09:39:03;;;;;;;1.90;1.10;;;;;20.50;95576.00;;;;5023254;28;20816;-69
2023/08/29 09:42:02;;;;;;;2.23;1.43;;;;;20.40;95578.00;;;;5029077;28;20201;-69
2023/08/29 09:44:52;;;;;;;1.57;1.40;;;;;20.40;95584.00;;;;5036613;28;20726;-69
2023/08/29 09:47:41;;;;;;;1.70;1.30;;;;;20.50;95592.00;;;;5028638;28;20220;-69
2023/08/29 09:50:30;;;;;;;1.13;0.90;;;;;20.70;95584.00;;;;5026761;28;20587;-68
2023/08/29 09:53:20;;;;;;;4.23;1.83;;;;;20.80;95583.00;;;;5026068;28;20201;-69
2023/08/29 09:56:11;;;;;;;1.70;1.30;;;;;20.60;95580.00;;;;5038766;22;20237;-87
2023/08/29 09:59:01;;;;;;;5.13;1.70;;;;;20.60;95575.00;;;;5030080;28;20912;-85
2023/08/29 10:01:51;;;;;;;1.83;0.90;;;;;20.60;95584.00;;;;5034600;28;20220;-85
2023/08/29 10:04:44;;;;;;;4.20;1.30;;;;;20.60;95585.00;;;;5034179;28;20232;-87
2023/08/29 10:07:39;;;;;;;1.87;1.07;;;;;20.40;95588.00;;;;5035121;28;20229;-84
2023/08/29 10:10:40;;;;;;;3.50;1.40;;;;;20.50;95586.00;;;;5036262;28;20219;-84
2023/08/29 10:13:35;;;;;;;1.73;1.10;;;;;20.60;95588.00;;;;5035496;28;20216;-86
2023/08/29 10:16:26;;;;;;;3.60;1.00;;;;;20.50;95589.00;;;;5037976;28;20272;-85
2023/08/29 10:19:17;;;;;;;3.00;1.10;;;;;20.00;95596.00;;;;5036522;28;20227;-85
2023/08/29 10:22:08;;;;;;;2.00;1.20;;;;;19.90;95602.00;;;;5035021;28;20239;-87
2023/08/29 10:24:58;;;;;;;1.70;0.90;;;;;19.70;95595.00;;;;5034222;28;20217;-88
2023/08/29 10:27:47;;;;;;;2.37;1.07;;;;;19.70;95589.00;;;;5035997;28;20201;-85
2023/08/29 10:30:40;;;;;;;1.57;1.17;;;;;19.60;95589.00;;;;5030581;28;20229;-86
2023/08/29 10:33:29;;;;;;;0.80;0.80;;;;;19.50;95591.00;;;;5034107;28;20209;-85
2023/08/29 10:36:19;;;;;;;1.00;0.90;;;;;19.80;95583.00;;;;5035425;28;20208;-89
2023/08/29 10:39:15;;;;;;;0.80;0.80;;;;;20.00;95584.00;;;;5027965;28;20202;-87
2023/08/29 10:42:04;;;;;;;1.40;1.20;;;;;20.30;95591.00;;;;5033332;28;20693;-87
2023/08/29 10:44:55;;;;;;;2.23;1.80;;;;;20.20;95587.00;;;;5033539;28;20224;-87
2023/08/29 10:47:48;;;;;;;0.80;0.73;;;;;20.10;95596.00;;;;5025225;28;20197;-86
2023/08/29 10:50:39;;;;;;;2.37;0.90;;;;;20.10;95594.00;;;;5030056;28;20229;-87
2023/08/29 10:53:31;;;;;;;3.80;1.00;;;;;20.00;95592.00;;;;5032570;28;20198;-85
2023/08/29 10:56:24;;;;;;;0.90;0.57;;;;;20.00;95587.00;;;;5027767;28;20223;-86
2023/08/29 10:59:32;;;;;;;4.03;1.67;;;;;20.10;95590.00;;;;5027927;28;20205;-85
2023/08/29 11:02:26;;;;;;;1.17;0.83;;;;;20.20;95597.00;;;;5027353;28;20240;-85
2023/08/29 11:05:19;;;;;;;2.33;1.20;;;;;20.30;95594.00;;;;5031331;28;20220;-86
2023/08/29 11:08:21;;;;;;;1.57;1.10;;;;;20.40;95592.00;;;;5026237;28;20282;-85
2023/08/29 11:11:21;;;;;;;1.37;0.80;;;;;20.40;95602.00;;;;5031703;28;20232;-86
2023/08/29 11:14:10;;;;;;;1.80;1.00;;;;;20.40;95589.00;;;;5023258;28;20215;-86
2023/08/29 11:17:12;;;;;;;1.73;0.73;;;;;20.30;95584.00;;;;5029082;28;20208;-86
2023/08/29 11:20:02;;;;;;;0.83;0.60;;;;;20.10;95584.00;;;;5028374;28;20225;-87
2023/08/29 11:22:53;;;;;;;0.83;0.57;;;;;20.20;95583.00;;;;5026722;28;20204;-86
2023/08/29 11:25:43;;;;;;;1.00;0.47;;;;;20.10;95574.00;;;;5028511;28;20235;-87
2023/08/29 11:28:34;;;;;;;1.20;0.70;;;;;19.90;95580.00;;;;5027941;28;20202;-86
2023/08/29 11:31:23;;;;;;;1.67;1.30;;;;;19.90;95582.00;;;;5020838;28;20228;-84
2023/08/29 11:34:17;;;;;;;0.73;0.73;;;;;19.70;95587.00;;;;5023077;28;20678;-85
2023/08/29 11:37:10;;;;;;;1.70;0.43;;;;;19.70;95595.00;;;;5025162;28;20697;-84
2023/08/29 11:40:05;;;;;;;0.80;0.40;;;;;19.40;95585.00;;;;5028918;28;20208;-86
2023/08/29 11:42:54;;;;;;;1.00;0.40;;;;;19.20;95576.00;;;;5027543;28;20223;-87
2023/08/29 11:45:43;;;;;;;0.67;0.50;;;;;19.40;95573.00;;;;5026710;28;20221;-85
2023/08/29 11:48:35;;;;;;;0.77;0.40;;;;;19.40;95582.00;;;;5026864;28;20204;-86
2023/08/29 11:51:25;;;;;;;1.30;0.43;;;;;19.30;95586.00;;;;5024543;28;20221;-85
2023/08/29 11:54:39;;;;;;;0.97;0.30;;;;;19.30;95577.00;;;;5027589;28;20204;-87
2023/08/29 11:57:30;;;;;;;0.47;0.40;;;;;19.50;95554.00;;;;5026666;28;20209;-86
2023/08/29 12:00:20;;;;;;;0.47;0.27;;;;;19.70;95556.00;;;;5026333;28;20209;-86
2023/08/29 12:03:09;;;;;;;0.37;0.30;;;;;19.70;95574.00;;;;5025950;28;20198;-86
2023/08/29 12:05:59;;;;;;;0.30;0.30;;;;;19.50;95570.00;;;;5026894;28;20232;-86
2023/08/29 12:08:50;;;;;;;0.40;0.20;;;;;19.30;95563.00;;;;5029600;28;20224;-86
2023/08/29 12:11:42;;;;;;;0.30;0.17;;;;;19.50;95572.00;;;;5029434;28;20357;-86
2023/08/29 12:14:48;;;;;;;0.30;0.30;;;;;19.30;95566.00;;;;5027513;28;20206;-85
2023/08/29 12:17:39;;;;;;;6.03;0.37;;;;;19.40;95576.00;;;;5029408;28;20211;-85
2023/08/29 12:20:31;;;;;;;1.87;0.30;;;;;19.40;95585.00;;;;5030684;28;20624;-87
2023/08/29 12:23:27;;;;;;;0.83;0.40;;;;;19.30;95591.00;;;;5027249;28;20586;-86
2023/08/29 12:26:17;;;;;;;0.30;0.20;;;;;19.30;95597.00;;;;5025878;28;20205;-86
2023/08/29 12:29:06;;;;;;;0.40;0.30;;;;;19.40;95599.00;;;;5028923;28;20560;-85
2023/08/29 12:31:56;;;;;;;0.30;0.30;;;;;19.20;95611.00;;;;5027975;28;20585;-85
2023/08/29 12:34:46;;;;;;;0.20;0.20;;;;;19.10;95612.00;;;;5031140;28;20213;-85
2023/08/29 12:37:35;;;;;;;0.37;0.20;;;;;19.10;95617.00;;;;5038265;28;20707;-85
2023/08/29 12:40:24;;;;;;;0.53;0.40;;;;;18.80;95621.00;;;;5025555;28;20217;-85
2023/08/29 12:43:15;;;;;;;0.20;0.20;;;;;18.70;95626.00;;;;5030363;28;20209;-85
2023/08/29 12:46:04;;;;;;;2.10;0.30;;;;;18.80;95627.00;;;;5025473;28;20233;-86
2023/08/29 12:48:55;;;;;;;0.77;0.40;;;;;18.50;95623.00;;;;5030271;28;20221;-85
2023/08/29 12:51:44;;;;;;;0.47;0.40;;;;;18.50;95623.00;;;;5027994;28;20224;-85
2023/08/29 12:54:35;;;;;;;1.70;0.40;;;;;18.30;95625.00;;;;5030091;28;20212;-85
2023/08/29 12:57:24;;;;;;;0.30;0.27;;;;;18.40;95645.00;;;;5038137;28;20588;-85
2023/08/29 13:00:18;;;;;;;0.40;0.30;;;;;18.10;95646.00;;;;5037015;28;20212;-87
2023/08/29 13:03:07;;;;;;;1.17;0.30;;;;;18.20;95647.00;;;;5038698;28;20217;-85
2023/08/29 13:05:59;;;;;;;1.07;0.30;;;;;18.10;95635.00;;;;5033812;28;20244;-85
2023/08/29 13:08:48;;;;;;;1.60;0.30;;;;;18.20;95653.00;;;;5029864;28;20216;-85
2023/08/29 13:11:37;;;;;;;0.50;0.20;;;;;18.20;95634.00;;;;5030721;28;20225;-85
2023/08/29 13:14:28;;;;;;;0.30;0.23;;;;;18.30;95645.00;;;;5028721;28;20217;-85
2023/08/29 13:17:23;;;;;;;0.40;0.33;;;;;18.30;95648.00;;;;5029447;28;20584;-84
2023/08/29 13:20:13;;;;;;;1.27;0.30;;;;;18.20;95659.00;;;;5045194;28;20239;-86
2023/08/29 13:23:05;;;;;;;0.83;0.30;;;;;18.10;95663.00;;;;5049795;28;20196;-85
2023/08/29 13:25:54;;;;;;;2.83;0.40;;;;;18.00;95664.00;;;;5042983;28;20231;-87
2023/08/29 13:28:43;;;;;;;0.37;0.37;;;;;18.10;95656.00;;;;5040458;28;20216;-86
2023/08/29 13:31:33;;;;;;;0.40;0.30;;;;;18.20;95666.00;;;;5032980;28;20237;-86
2023/08/29 13:34:22;;;;;;;1.70;0.20;;;;;18.00;95660.00;;;;5032637;28;20607;-87
2023/08/29 13:37:11;;;;;;;0.37;0.33;;;;;18.20;95647.00;;;;5034447;28;20242;-86
2023/08/29 13:40:05;;;;;;;0.87;0.53;;;;;17.60;95656.00;;;;5030882;28;20212;-87
2023/08/29 13:42:54;;;;;;;1.33;0.40;;;;;18.10;95652.00;;;;5035320;28;20212;-86
2023/08/29 13:45:43;;;;;;;0.40;0.23;;;;;17.60;95643.00;;;;5031096;28;20338;-88
2023/08/29 13:48:32;;;;;;;2.10;0.50;;;;;17.70;95636.00;;;;5033623;28;20205;-87
2023/08/29 13:51:21;;;;;;;0.37;0.20;;;;;18.10;95648.00;;;;5036975;28;20221;-88
2023/08/29 13:54:10;;;;;;;0.40;0.30;;;;;18.00;95658.00;;;;5034797;28;20705;-87
2023/08/29 13:57:01;;;;;;;1.40;0.23;;;;;18.10;95652.00;;;;5029602;28;20456;-86
2023/08/29 13:59:50;;;;;;;0.97;0.20;;;;;17.70;95650.00;;;;5031407;28;20207;-87
2023/08/29 14:02:39;;;;;;;1.57;0.50;;;;;18.20;95651.00;;;;5031244;28;20217;-89
2023/08/29 14:05:29;;;;;;;0.60;0.37;;;;;18.00;95653.00;;;;5033395;28;20213;-86
2023/08/29 14:08:18;;;;;;;0.80;0.30;;;;;18.10;95660.00;;;;5031654;28;20208;-85
2023/08/29 14:11:07;;;;;;;0.77;0.40;;;;;18.30;95660.00;;;;5028680;28;20233;-87
2023/08/29 14:13:57;;;;;;;1.30;0.20;;;;;18.20;95658.00;;;;5032753;28;20208;-85